Time;durP1;ratioP1;P1;durP2;ratioP2;P2;SDS_P1;SDS_P2;PMS_P1;PMS_P2;Temp;Humidity;BMP_temperature;BMP_pressure;BME280_temperature;BME280_humidity;BME280_pressure;Samples;Min_cycle;Max_cycle;Signal;HPM_P1;HPM_P2
2020/12/11 00:00:31;;;;;;;;;;;;;;;14.84;73.15;99341.09;5035245;28;19942;-79
2020/12/11 00:02:58;;;;;;;;;;;;;;;14.80;73.44;99347.59;5029698;28;19975;-79
2020/12/11 00:05:24;;;;;;;;;;;;;;;14.74;73.36;99343.47;5031382;28;19925;-78
2020/12/11 00:07:50;;;;;;;;;;;;;;;14.73;73.88;99348.91;5049581;28;20423;-78
2020/12/11 00:10:17;;;;;;;;;;;;;;;14.79;73.49;99338.72;5044659;28;19954;-78
2020/12/11 00:12:43;;;;;;;;;;;;;;;14.57;73.71;99338.31;5047302;28;19987;-78
2020/12/11 00:15:10;;;;;;;;;;;;;;;14.52;74.47;99343.94;5043453;28;20415;-79
2020/12/11 00:17:37;;;;;;;;;;;;;;;14.55;74.86;99344.72;5041374;28;19936;-79
2020/12/11 00:20:04;;;;;;;;;;;;;;;14.45;74.97;99342.59;5040058;28;20331;-80
2020/12/11 00:22:30;;;;;;;;;;;;;;;14.46;75.59;99341.63;5045107;28;20370;-81
2020/12/11 00:24:57;;;;;;;;;;;;;;;14.63;76.09;99335.28;5050016;28;19946;-80
2020/12/11 00:27:24;;;;;;;;;;;;;;;14.66;76.57;99336.91;5044770;28;20320;-80
2020/12/11 00:29:50;;;;;;;;;;;;;;;14.77;75.07;99337.97;5048290;28;19924;-80
2020/12/11 00:32:18;;;;;;;;;;;;;;;14.75;74.14;99336.31;5036394;28;20355;-78
2020/12/11 00:34:44;;;;;;;;;;;;;;;14.77;73.49;99343.28;5049314;28;19924;-79
2020/12/11 00:37:10;;;;;;;;;;;;;;;14.93;73.11;99337.84;5025221;28;19932;-79
2020/12/11 00:39:37;;;;;;;;;;;;;;;14.91;73.15;99350.44;5027590;28;19929;-80
2020/12/11 00:42:03;;;;;;;;;;;;;;;14.94;73.26;99345.78;5031125;28;19925;-79
2020/12/11 00:44:29;;;;;;;;;;;;;;;14.93;73.16;99349.38;5027999;28;20048;-80
2020/12/11 00:46:56;;;;;;;;;;;;;;;15.02;73.31;99353.31;5024066;28;19957;-79
2020/12/11 00:49:23;;;;;;;;;;;;;;;15.01;72.93;99353.38;5028367;28;19931;-80
2020/12/11 00:51:53;;;;;;;;;;;;;;;14.98;73.28;99343.78;5029003;28;20346;-80
2020/12/11 00:54:20;;;;;;;;;;;;;;;15.02;73.30;99355.09;5047412;28;19924;-80
2020/12/11 00:56:46;;;;;;;;;;;;;;;14.98;72.84;99366.94;5050599;28;20381;-79
2020/12/11 00:59:13;;;;;;;;;;;;;;;14.96;73.09;99374.16;5048569;28;19925;-80
2020/12/11 01:01:39;;;;;;;;;;;;;;;14.98;73.13;99365.13;5048989;28;20443;-80
2020/12/11 01:04:05;;;;;;;;;;;;;;;14.92;73.11;99365.50;5040921;28;20347;-77
2020/12/11 01:06:33;;;;;;;;;;;;;;;15.07;72.96;99366.34;5040662;28;20010;-80
2020/12/11 01:08:59;;;;;;;;;;;;;;;14.88;73.87;99369.31;5035447;28;20006;-80
2020/12/11 01:11:26;;;;;;;;;;;;;;;15.17;72.89;99357.69;5028287;28;19925;-78
2020/12/11 01:13:52;;;;;;;;;;;;;;;15.21;72.79;99363.69;5031714;28;19925;-78
2020/12/11 01:16:18;;;;;;;;;;;;;;;15.15;72.58;99358.72;5029026;28;19926;-78
2020/12/11 01:18:45;;;;;;;;;;;;;;;15.04;73.17;99356.75;5040499;28;20022;-78
2020/12/11 01:21:11;;;;;;;;;;;;;;;15.02;72.99;99349.78;5027234;28;19925;-78
2020/12/11 01:23:39;;;;;;;;;;;;;;;14.96;73.16;99353.69;5041829;28;20720;-79
2020/12/11 01:26:07;;;;;;;;;;;;;;;14.97;73.00;99352.72;5050051;28;19925;-79
2020/12/11 01:28:33;;;;;;;;;;;;;;;14.93;73.34;99353.84;5047711;28;20424;-78
2020/12/11 01:30:59;;;;;;;;;;;;;;;14.79;74.22;99362.75;5049681;28;19984;-79
2020/12/11 01:33:26;;;;;;;;;;;;;;;14.93;73.61;99360.06;5047070;28;19924;-78
2020/12/11 01:35:52;;;;;;;;;;;;;;;14.75;73.81;99361.19;5041041;28;19970;-79
2020/12/11 01:38:18;;;;;;;;;;;;;;;14.61;74.56;99363.88;5038938;28;19972;-79
2020/12/11 01:40:46;;;;;;;;;;;;;;;14.63;74.71;99366.41;5050321;28;19925;-79
2020/12/11 01:43:13;;;;;;;;;;;;;;;14.49;75.30;99368.09;5048251;28;19925;-78
2020/12/11 01:45:39;;;;;;;;;;;;;;;14.52;75.05;99367.06;5048816;28;19929;-79
2020/12/11 01:48:07;;;;;;;;;;;;;;;14.69;75.67;99369.56;5049109;28;19925;-78
2020/12/11 01:50:34;;;;;;;;;;;;;;;14.83;75.44;99368.72;5038083;28;19924;-78
2020/12/11 01:53:00;;;;;;;;;;;;;;;14.79;74.60;99367.22;5035429;28;19929;-78
2020/12/11 01:55:26;;;;;;;;;;;;;;;14.76;75.21;99368.25;5041971;28;20033;-78
2020/12/11 01:58:01;;;;;;;;;;;;;;;14.60;75.44;99359.47;5052023;28;19975;-80
2020/12/11 02:00:27;;;;;;;;;;;;;;;14.69;75.59;99352.72;5047096;28;19939;-80
2020/12/11 02:02:59;;;;;;;;;;;;;;;14.54;75.74;99354.53;5049756;28;19972;-79
2020/12/11 02:05:26;;;;;;;;;;;;;;;14.52;76.01;99353.75;5028464;28;19991;-79
2020/12/11 02:07:52;;;;;;;;;;;;;;;14.58;75.95;99349.84;5029953;28;19964;-79
2020/12/11 02:10:18;;;;;;;;;;;;;;;14.64;76.34;99353.00;5033108;28;20388;-79
2020/12/11 02:12:44;;;;;;;;;;;;;;;14.81;75.53;99354.63;5049072;28;19975;-79
2020/12/11 02:15:12;;;;;;;;;;;;;;;14.76;74.22;99362.06;5047865;28;19924;-80
2020/12/11 02:17:38;;;;;;;;;;;;;;;14.82;73.36;99359.88;5047919;28;20466;-79
2020/12/11 02:20:04;;;;;;;;;;;;;;;14.91;72.97;99353.97;5039197;28;19925;-80
2020/12/11 02:22:31;;;;;;;;;;;;;;;14.87;72.82;99348.91;5046117;28;19986;-79
2020/12/11 02:24:57;;;;;;;;;;;;;;;14.89;72.70;99347.88;5040451;28;19951;-79
2020/12/11 02:27:24;;;;;;;;;;;;;;;14.94;72.21;99344.91;5046039;28;19925;-79
2020/12/11 02:29:50;;;;;;;;;;;;;;;15.02;72.02;99341.75;5049011;28;20435;-79
2020/12/11 02:32:16;;;;;;;;;;;;;;;14.97;72.57;99342.06;5046139;28;19940;-80
2020/12/11 02:34:43;;;;;;;;;;;;;;;14.60;72.51;99345.28;5049322;28;19991;-79
2020/12/11 02:37:09;;;;;;;;;;;;;;;14.73;73.14;99341.78;5038086;28;19990;-80
2020/12/11 02:39:37;;;;;;;;;;;;;;;14.80;72.47;99332.41;5040030;28;19932;-79
2020/12/11 02:42:03;;;;;;;;;;;;;;;14.80;73.58;99342.25;5051135;28;19925;-80
2020/12/11 02:44:29;;;;;;;;;;;;;;;14.73;73.14;99335.59;5048915;28;20432;-79
2020/12/11 02:46:55;;;;;;;;;;;;;;;14.74;72.55;99339.97;5059307;28;19925;-80
2020/12/11 02:49:21;;;;;;;;;;;;;;;14.70;71.44;99346.44;5049680;28;19967;-79
2020/12/11 02:51:48;;;;;;;;;;;;;;;14.75;70.64;99347.84;5040517;28;19947;-79
2020/12/11 02:54:14;;;;;;;;;;;;;;;14.84;69.58;99355.31;5043243;28;19929;-79
2020/12/11 02:56:41;;;;;;;;;;;;;;;14.83;70.11;99363.41;5056042;28;19925;-80
2020/12/11 02:59:08;;;;;;;;;;;;;;;14.63;69.81;99363.75;5061921;28;19932;-80
2020/12/11 03:01:34;;;;;;;;;;;;;;;14.64;70.41;99363.66;5060865;28;19979;-79
2020/12/11 03:04:01;;;;;;;;;;;;;;;14.65;71.47;99359.19;5060636;28;19951;-79
2020/12/11 03:06:30;;;;;;;;;;;;;;;14.72;71.38;99353.41;5037025;28;24234;-79
2020/12/11 03:08:57;;;;;;;;;;;;;;;14.82;71.92;99349.19;5048334;28;20062;-79
2020/12/11 03:11:23;;;;;;;;;;;;;;;14.78;71.77;99357.50;5037739;28;20010;-79
2020/12/11 03:13:50;;;;;;;;;;;;;;;14.53;71.88;99356.31;5048770;28;19925;-79
2020/12/11 03:16:17;;;;;;;;;;;;;;;14.58;72.08;99360.50;5046337;28;19928;-79
2020/12/11 03:18:43;;;;;;;;;;;;;;;14.64;72.47;99368.13;5046767;28;20312;-78
2020/12/11 03:21:10;;;;;;;;;;;;;;;14.46;72.13;99360.31;5047963;28;19924;-79
2020/12/11 03:23:36;;;;;;;;;;;;;;;14.49;72.88;99362.78;5037707;28;19975;-79
2020/12/11 03:26:03;;;;;;;;;;;;;;;14.58;73.31;99360.50;5034157;28;19960;-79
2020/12/11 03:28:29;;;;;;;;;;;;;;;14.43;73.79;99363.13;5026525;28;20679;-78
2020/12/11 03:30:57;;;;;;;;;;;;;;;14.41;74.36;99358.88;5032193;28;20402;-79
2020/12/11 03:33:23;;;;;;;;;;;;;;;14.52;74.82;99359.94;5045879;28;19952;-78
2020/12/11 03:35:50;;;;;;;;;;;;;;;14.43;74.41;99364.94;5048648;28;20370;-79
2020/12/11 03:38:16;;;;;;;;;;;;;;;14.49;74.39;99370.78;5037848;28;19956;-79
2020/12/11 03:40:43;;;;;;;;;;;;;;;14.50;74.12;99369.81;5047669;28;19925;-79
2020/12/11 03:43:09;;;;;;;;;;;;;;;14.53;73.38;99376.78;5024374;28;20443;-80
2020/12/11 03:45:36;;;;;;;;;;;;;;;14.44;72.53;99380.84;5026118;28;20015;-80
2020/12/11 03:48:03;;;;;;;;;;;;;;;14.44;73.04;99383.53;5027539;28;19975;-81
2020/12/11 03:50:29;;;;;;;;;;;;;;;14.44;73.31;99390.66;5024404;28;19982;-78
2020/12/11 03:52:56;;;;;;;;;;;;;;;14.43;74.38;99391.59;5025784;28;19960;-79
2020/12/11 03:55:22;;;;;;;;;;;;;;;14.49;74.74;99389.44;5040106;28;20421;-78
2020/12/11 03:57:48;;;;;;;;;;;;;;;14.50;74.27;99395.63;5036024;28;19964;-78
2020/12/11 04:00:14;;;;;;;;;;;;;;;14.29;75.54;99389.75;5044995;28;19925;-80
2020/12/11 04:02:41;;;;;;;;;;;;;;;14.39;75.24;99395.41;5046990;28;19929;-78
2020/12/11 04:05:08;;;;;;;;;;;;;;;14.35;75.09;99396.53;5049187;28;19983;-78
2020/12/11 04:07:35;;;;;;;;;;;;;;;14.38;74.74;99397.22;5039562;28;19933;-78
2020/12/11 04:10:01;;;;;;;;;;;;;;;14.39;74.95;99401.59;5034967;28;20389;-79
2020/12/11 04:12:27;;;;;;;;;;;;;;;14.45;74.38;99400.38;5039568;28;21391;-78
2020/12/11 04:14:53;;;;;;;;;;;;;;;14.38;73.79;99404.34;5051339;28;19924;-78
2020/12/11 04:17:19;;;;;;;;;;;;;;;14.37;73.81;99405.25;5045329;28;19975;-79
2020/12/11 04:19:46;;;;;;;;;;;;;;;14.43;74.14;99402.25;5046945;28;19924;-78
2020/12/11 04:22:14;;;;;;;;;;;;;;;14.42;74.09;99400.56;5040068;28;19947;-78
2020/12/11 04:24:40;;;;;;;;;;;;;;;14.30;73.81;99404.78;5024299;28;20038;-79
2020/12/11 04:27:06;;;;;;;;;;;;;;;14.31;73.57;99402.97;5026027;28;19925;-78
2020/12/11 04:29:32;;;;;;;;;;;;;;;14.38;73.54;99399.03;5022603;28;20010;-78
2020/12/11 04:31:59;;;;;;;;;;;;;;;14.23;73.29;99410.56;5046740;28;20373;-79
2020/12/11 04:34:26;;;;;;;;;;;;;;;14.30;75.03;99404.78;5043718;28;19925;-80
2020/12/11 04:36:52;;;;;;;;;;;;;;;14.34;76.02;99419.66;5046654;28;20345;-79
2020/12/11 04:39:19;;;;;;;;;;;;;;;14.14;76.91;99417.28;5029239;28;20385;-79
2020/12/11 04:41:46;;;;;;;;;;;;;;;14.27;75.92;99414.75;5047242;28;19932;-80
2020/12/11 04:44:12;;;;;;;;;;;;;;;14.21;76.13;99415.13;5041177;28;19972;-81
2020/12/11 04:46:39;;;;;;;;;;;;;;;14.04;77.04;99405.44;5043116;28;19951;-80
2020/12/11 04:49:06;;;;;;;;;;;;;;;14.06;77.27;99400.88;5046478;28;19947;-80
2020/12/11 04:51:33;;;;;;;;;;;;;;;14.10;77.39;99403.28;5045974;28;19925;-80
2020/12/11 04:53:59;;;;;;;;;;;;;;;14.10;76.65;99407.75;5038522;28;20285;-79
2020/12/11 04:56:27;;;;;;;;;;;;;;;14.11;76.21;99404.16;5043373;28;19924;-80
2020/12/11 04:58:54;;;;;;;;;;;;;;;14.10;76.23;99410.41;5046719;28;19925;-80
2020/12/11 05:01:30;;;;;;;;;;;;;;;14.08;76.29;99406.97;5033214;28;19925;-80
2020/12/11 05:03:57;;;;;;;;;;;;;;;14.08;76.17;99410.50;5046612;28;19925;-78
2020/12/11 05:06:23;;;;;;;;;;;;;;;13.97;76.08;99412.06;5045168;28;19925;-78
2020/12/11 05:08:50;;;;;;;;;;;;;;;13.91;76.20;99401.75;5036778;28;19925;-79
2020/12/11 05:11:33;;;;;;;;;;;;;;;13.96;75.48;99408.53;5044698;28;20397;-79
2020/12/11 05:14:00;;;;;;;;;;;;;;;-144.28;100.00;59960.28;5048190;28;20348;-78
2020/12/11 05:16:27;;;;;;;;;;;;;;;-144.28;100.00;59960.28;5037759;28;19947;-78
2020/12/11 05:19:02;;;;;;;;;;;;;;;-144.28;100.00;59960.28;5047984;28;20361;-78
2020/12/11 05:21:30;;;;;;;;;;;;;;;-144.28;100.00;59960.28;5046320;28;19965;-78
2020/12/11 05:23:57;;;;;;;;;;;;;;;-144.28;100.00;59960.28;5049862;28;19975;-78
2020/12/11 05:26:23;;;;;;;;;;;;;;;-144.28;100.00;59960.28;5019334;28;19957;-78
2020/12/11 05:28:50;;;;;;;;;;;;;;;-144.28;100.00;59960.28;5039016;28;19925;-78
2020/12/11 05:31:17;;;;;;;;;;;;;;;-144.28;100.00;59960.28;5032176;28;19979;-78
2020/12/11 05:34:03;;;;;;;;;;;;;;;-144.28;100.00;59960.28;5029629;28;19925;-79
2020/12/11 05:36:29;;;;;;;;;;;;;;;-144.28;100.00;59960.28;5027629;28;19967;-78
2020/12/11 05:38:55;;;;;;;;;;;;;;;13.96;75.48;99408.53;5029962;28;19971;-78
2020/12/11 05:41:31;;;;;;;;;;;;;;;13.96;75.48;99408.53;5026187;28;20011;-78
2020/12/11 05:43:58;;;;;;;;;;;;;;;13.96;75.48;99408.53;5049944;28;19968;-78
2020/12/11 05:46:29;;;;;;;;;;;;;;;-144.28;100.00;59960.28;5030213;28;19965;-78
2020/12/11 05:48:57;;;;;;;;;;;;;;;13.96;75.48;99408.53;5030539;28;19926;-78
2020/12/11 05:51:24;;;;;;;;;;;;;;;14.05;75.47;99437.31;5026688;28;19925;-77
2020/12/11 05:53:52;;;;;;;;;;;;;;;-144.28;100.00;59960.28;5029999;28;19926;-79
2020/12/11 05:56:19;;;;;;;;;;;;;;;14.05;75.47;99437.31;5023295;28;19956;-78
2020/12/11 05:58:46;;;;;;;;;;;;;;;-144.28;100.00;59960.28;5046329;28;19924;-78
2020/12/11 06:01:17;;;;;;;;;;;;;;;-144.28;100.00;59960.28;5043276;28;19925;-78
2020/12/11 06:03:45;;;;;;;;;;;;;;;14.05;75.47;99437.31;5047604;28;19956;-77
2020/12/11 06:06:15;;;;;;;;;;;;;;;14.05;75.47;99437.31;5047751;28;19972;-78
2020/12/11 06:08:43;;;;;;;;;;;;;;;14.19;75.15;99443.66;5048558;28;20329;-78
2020/12/11 06:11:16;;;;;;;;;;;;;;;-144.28;100.00;59960.28;5043864;28;20452;-77
2020/12/11 06:13:49;;;;;;;;;;;;;;;-144.28;100.00;59960.28;5046910;28;19975;-79
2020/12/11 06:16:17;;;;;;;;;;;;;;;14.19;75.15;99443.66;5040989;28;20061;-78
2020/12/11 06:18:45;;;;;;;;;;;;;;;-144.28;100.00;59960.28;5027122;28;20394;-79
2020/12/11 06:21:12;;;;;;;;;;;;;;;-144.28;100.00;59960.28;5027647;28;19925;-79
2020/12/11 06:23:41;;;;;;;;;;;;;;;-144.28;100.00;59960.28;5027724;28;19972;-79
2020/12/11 06:26:07;;;;;;;;;;;;;;;-144.28;100.00;59960.28;5028398;28;19961;-79
2020/12/11 06:28:41;;;;;;;;;;;;;;;-144.28;100.00;59960.28;5035777;28;20006;-79
2020/12/11 06:31:08;;;;;;;;;;;;;;;-144.28;100.00;59960.28;5044878;28;19929;-78
2020/12/11 06:33:36;;;;;;;;;;;;;;;-144.28;100.00;59960.28;5041949;28;20451;-79
2020/12/11 06:36:05;;;;;;;;;;;;;;;-144.28;100.00;59960.28;5048545;28;19925;-79
2020/12/11 06:38:40;;;;;;;;;;;;;;;-144.28;100.00;59960.28;5046474;28;19925;-79
2020/12/11 06:41:07;;;;;;;;;;;;;;;-144.28;100.00;59960.28;5047337;28;19947;-79
2020/12/11 06:43:37;;;;;;;;;;;;;;;14.19;75.15;99443.66;5037154;28;19960;-79
2020/12/11 06:46:03;;;;;;;;;;;;;;;;;;5047712;28;20385;-79
2020/12/11 06:48:30;;;;;;;;;;;;;;;-144.28;100.00;59960.28;5037432;28;19925;-79
2020/12/11 06:51:04;;;;;;;;;;;;;;;-144.28;100.00;59960.28;5048259;28;19924;-79
2020/12/11 06:53:40;;;;;;;;;;;;;;;-144.28;100.00;59960.28;5046031;28;20747;-79
2020/12/11 06:56:07;;;;;;;;;;;;;;;-144.28;100.00;59960.28;5047490;28;19928;-78
2020/12/11 06:58:33;;;;;;;;;;;;;;;-144.28;100.00;59960.28;5036360;28;19925;-79
2020/12/11 07:00:59;;;;;;;;;;;;;;;;;;5048501;28;19956;-79
2020/12/11 07:03:27;;;;;;;;;;;;;;;-144.28;100.00;59960.28;5033143;28;19964;-79
2020/12/11 07:05:57;;;;;;;;;;;;;;;-144.28;100.00;59960.28;5048366;28;20223;-79
2020/12/11 07:08:24;;;;;;;;;;;;;;;-144.28;100.00;59960.28;5044521;28;19986;-79
2020/12/11 07:10:51;;;;;;;;;;;;;;;-144.28;100.00;59960.28;5048495;28;20300;-79
2020/12/11 07:13:17;;;;;;;;;;;;;;;-144.28;100.00;59960.28;5038480;28;19929;-79
2020/12/11 07:15:44;;;;;;;;;;;;;;;-144.28;100.00;59960.28;5041453;28;20370;-80
2020/12/11 07:18:13;;;;;;;;;;;;;;;-144.28;56.80;59960.28;5046805;28;20289;-80
2020/12/11 07:20:44;;;;;;;;;;;;;;;-144.28;100.00;59960.28;5035834;28;19978;-79
2020/12/11 07:23:11;;;;;;;;;;;;;;;15.39;73.36;99513.84;5046551;28;19925;-80
2020/12/11 07:25:38;;;;;;;;;;;;;;;15.42;72.99;99511.88;5047222;28;20239;-78
2020/12/11 07:28:04;;;;;;;;;;;;;;;15.44;72.84;99509.06;5047785;28;19974;-79
2020/12/11 07:30:30;;;;;;;;;;;;;;;15.42;71.52;99503.00;5036085;28;19952;-79
2020/12/11 07:32:57;;;;;;;;;;;;;;;15.37;71.37;99507.72;5047951;28;19994;-79
2020/12/11 07:35:24;;;;;;;;;;;;;;;15.42;70.98;99500.31;5028664;28;19925;-79
2020/12/11 07:37:51;;;;;;;;;;;;;;;15.35;71.07;99505.19;5028719;28;20377;-80
2020/12/11 07:40:18;;;;;;;;;;;;;;;15.43;71.12;99513.56;5025526;28;19931;-79
2020/12/11 07:42:46;;;;;;;;;;;;;;;15.40;71.84;99516.44;5027237;28;20026;-78
2020/12/11 07:45:22;;;;;;;;;;;;;;;15.56;70.73;99519.03;5020905;28;19932;-79
2020/12/11 07:47:48;;;;;;;;;;;;;;;15.51;71.11;99516.63;5027428;28;20360;-79
2020/12/11 07:50:15;;;;;;;;;;;;;;;15.56;71.33;99514.53;5020556;28;19987;-79
2020/12/11 07:52:41;;;;;;;;;;;;;;;15.65;70.53;99522.00;5024464;28;19929;-79
2020/12/11 07:55:10;;;;;;;;;;;;;;;15.71;69.88;99524.28;5025814;28;19925;-79
2020/12/11 07:57:37;;;;;;;;;;;;;;;15.66;69.43;99525.53;5029971;28;19968;-77
2020/12/11 08:00:05;;;;;;;;;;;;;;;15.65;69.28;99522.00;5026527;28;20270;-77
2020/12/11 08:02:33;;;;;;;;;;;;;;;15.71;68.67;99521.63;5019335;28;20016;-77
2020/12/11 08:04:59;;;;;;;;;;;;;;;15.82;69.32;99531.63;5044914;28;19978;-78
2020/12/11 08:07:26;;;;;;;;;;;;;;;15.80;69.97;99533.56;5038011;28;20358;-78
2020/12/11 08:09:53;;;;;;;;;;;;;;;15.85;69.46;99533.25;5044149;28;20045;-79
2020/12/11 08:12:20;;;;;;;;;;;;;;;15.92;69.67;99523.91;5047056;28;19925;-78
2020/12/11 08:14:47;;;;;;;;;;;;;;;15.94;69.23;99517.47;5043934;28;19925;-78
2020/12/11 08:17:15;;;;;;;;;;;;;;;16.05;69.79;99506.13;5033074;28;20018;-78
2020/12/11 08:19:42;;;;;;;;;;;;;;;16.17;69.69;99505.34;5024238;28;19925;-78
2020/12/11 08:22:12;;;;;;;;;;;;;;;16.22;68.78;99502.34;5025709;28;20038;-77
2020/12/11 08:24:38;;;;;;;;;;;;;;;16.34;69.32;99485.50;5039649;28;19925;-78
2020/12/11 08:27:05;;;;;;;;;;;;;;;16.40;68.93;99482.44;5029752;28;19925;-79
2020/12/11 08:29:31;;;;;;;;;;;;;;;16.58;68.51;99485.69;5031566;28;19925;-79
2020/12/11 08:31:57;;;;;;;;;;;;;;;16.68;67.60;99481.50;5036523;28;19990;-77
2020/12/11 08:34:29;;;;;;;;;;;;;;;16.72;66.47;99485.66;5029757;28;19925;-77
2020/12/11 08:37:01;;;;;;;;;;;;;;;16.52;65.31;99481.63;5032289;28;19968;-78
2020/12/11 08:39:28;;;;;;;;;;;;;;;16.66;65.61;99478.91;5040142;28;20541;-78
2020/12/11 08:50:31;;;;;;;;;;;;;;;16.79;67.29;99465.56;5043280;28;19925;-78
2020/12/11 08:52:57;;;;;;;;;;;;;;;16.81;67.01;99464.47;5033688;28;20032;-78
2020/12/11 08:55:23;;;;;;;;;;;;;;;16.82;66.76;99460.00;5043070;28;19932;-79
2020/12/11 08:57:50;;;;;;;;;;;;;;;16.89;66.84;99459.47;5046749;28;19924;-79
2020/12/11 09:00:16;;;;;;;;;;;;;;;16.82;67.18;99455.50;5041201;28;19925;-79
2020/12/11 09:02:43;;;;;;;;;;;;;;;16.77;67.22;99451.41;5032055;28;19931;-79
2020/12/11 09:05:09;;;;;;;;;;;;;;;16.88;67.13;99448.84;5053887;28;19975;-79
2020/12/11 09:07:36;;;;;;;;;;;;;;;16.87;65.71;99455.16;5051985;28;20300;-79
2020/12/11 09:10:03;;;;;;;;;;;;;;;17.04;65.58;99451.34;5042938;28;19979;-79
2020/12/11 09:12:30;;;;;;;;;;;;;;;17.21;64.77;99446.53;5045495;28;19980;-78
2020/12/11 09:14:57;;;;;;;;;;;;;;;17.21;64.77;99446.53;5041846;28;19974;-79
2020/12/11 09:17:23;;;;;;;;;;;;;;;17.13;60.90;99440.84;5052537;28;20015;-80
2020/12/11 09:19:50;;;;;;;;;;;;;;;17.13;60.90;99440.84;5044679;28;20400;-78
2020/12/11 09:22:16;;;;;;;;;;;;;;;17.13;60.90;99440.84;5052450;28;19932;-79
2020/12/11 09:24:43;;;;;;;;;;;;;;;17.13;60.90;99440.84;5040650;28;19929;-79
2020/12/11 09:27:12;;;;;;;;;;;;;;;17.13;60.90;99440.84;5044377;28;20587;-79
2020/12/11 09:29:41;;;;;;;;;;;;;;;17.13;60.90;99440.84;5035149;28;20365;-79
2020/12/11 09:32:09;;;;;;;;;;;;;;;17.50;60.42;99416.81;5041017;28;20436;-78
2020/12/11 09:34:36;;;;;;;;;;;;;;;17.57;60.24;99410.91;5042022;28;19966;-80
2020/12/11 09:37:03;;;;;;;;;;;;;;;17.72;59.92;99404.50;5012129;28;19991;-78
2020/12/11 09:39:29;;;;;;;;;;;;;;;17.84;60.46;99404.56;5021642;28;19933;-78
2020/12/11 09:42:03;;;;;;;;;;;;;;;17.84;60.46;99404.56;5031253;28;19948;-78
2020/12/11 09:44:49;;;;;;;;;;;;;;;17.97;60.52;99400.00;5022959;28;19986;-75
2020/12/11 09:47:35;;;;;;;;;;;;;;;17.97;60.52;99400.00;5037911;28;19936;-75
2020/12/11 09:50:12;;;;;;;;;;;;;;;17.97;60.52;99400.00;5027546;28;20024;-77
2020/12/11 09:52:49;;;;;;;;;;;;;;;17.97;60.52;99400.00;5031077;28;19929;-74
2020/12/11 09:55:16;;;;;;;;;;;;;;;17.97;60.52;99400.00;5011035;28;19987;-76
2020/12/11 09:57:43;;;;;;;;;;;;;;;17.97;60.52;99400.00;5023722;28;19936;-74
2020/12/11 10:00:10;;;;;;;;;;;;;;;17.97;60.52;99400.00;5020897;28;19926;-76
2020/12/11 10:02:50;;;;;;;;;;;;;;;17.97;60.52;99400.00;5029994;28;19925;-76
2020/12/11 10:05:16;;;;;;;;;;;;;;;17.97;60.52;99400.00;5020620;28;19933;-74
2020/12/11 10:07:42;;;;;;;;;;;;;;;17.93;58.56;99367.19;5033931;28;19933;-74
2020/12/11 10:10:09;;;;;;;;;;;;;;;17.93;58.56;99367.19;5044156;28;20314;-75
2020/12/11 10:12:35;;;;;;;;;;;;;;;17.96;58.32;99366.13;5027357;28;19964;-74
2020/12/11 10:15:04;;;;;;;;;;;;;;;17.96;58.32;99366.13;5104611;23;19925;-79
2020/12/11 10:17:31;;;;;;;;;;;;;;;18.03;58.81;99349.47;5050107;28;19962;-78
2020/12/11 10:19:57;;;;;;;;;;;;;;;18.03;58.81;99349.47;5059496;28;20414;-77
2020/12/11 10:22:24;;;;;;;;;;;;;;;18.03;58.81;99349.47;5036940;28;20016;-78
2020/12/11 10:24:50;;;;;;;;;;;;;;;18.03;58.81;99349.47;5067441;28;20373;-77
2020/12/11 10:27:16;;;;;;;;;;;;;;;18.03;58.81;99349.47;5049797;28;19978;-75
2020/12/11 10:29:43;;;;;;;;;;;;;;;18.03;58.81;99349.47;5051351;28;19983;-78
2020/12/11 10:32:10;;;;;;;;;;;;;;;18.37;59.35;99318.22;5041520;28;19925;-77
2020/12/11 10:34:36;;;;;;;;;;;;;;;18.37;59.35;99318.22;5044966;28;20373;-77
2020/12/11 10:37:06;;;;;;;;;;;;;;;18.37;59.35;99318.22;5037070;28;19952;-77
2020/12/11 10:39:32;;;;;;;;;;;;;;;18.37;59.35;99318.22;5051150;28;19924;-77
2020/12/11 10:42:00;;;;;;;;;;;;;;;18.53;59.18;99307.19;5050574;28;19925;-76
2020/12/11 10:44:26;;;;;;;;;;;;;;;18.53;59.18;99307.19;5038353;28;19952;-77
2020/12/11 10:46:52;;;;;;;;;;;;;;;18.53;59.18;99307.19;5049825;28;19956;-76
2020/12/11 10:49:21;;;;;;;;;;;;;;;18.53;59.18;99307.19;5038397;28;19929;-77
2020/12/11 10:51:47;;;;;;;;;;;;;;;18.53;59.18;99307.19;5032689;28;19932;-79
2020/12/11 10:54:17;;;;;;;;;;;;;;;18.53;59.18;99307.19;5046233;28;19973;-77
2020/12/11 10:56:43;;;;;;;;;;;;;;;18.53;59.18;99307.19;5056682;28;20003;-77
2020/12/11 10:59:09;;;;;;;;;;;;;;;18.53;59.18;99307.19;5049701;28;19925;-76
2020/12/11 11:01:35;;;;;;;;;;;;;;;18.53;59.18;99307.19;5049990;28;19986;-76
2020/12/11 11:04:02;;;;;;;;;;;;;;;18.53;59.18;99307.19;5049478;28;19925;-79
2020/12/11 11:06:32;;;;;;;;;;;;;;;18.53;59.18;99307.19;5044104;28;19980;-77
2020/12/11 11:09:09;;;;;;;;;;;;;;;18.53;59.18;99307.19;5047952;28;19929;-79
2020/12/11 11:11:38;;;;;;;;;;;;;;;18.53;59.18;99307.19;5058933;28;20423;-79
2020/12/11 11:14:18;;;;;;;;;;;;;;;18.53;59.18;99307.19;5052952;28;20020;-77
2020/12/11 11:19:32;;;;;;;;;;;;;;;-144.28;59.18;59960.28;5035182;28;20281;-78
2020/12/11 11:22:16;;;;;;;;;;;;;;;18.53;59.18;99307.19;5051256;28;19932;-78
2020/12/11 11:25:04;;;;;;;;;;;;;;;18.53;59.18;99307.19;5045510;28;20137;-78
2020/12/11 11:27:33;;;;;;;;;;;;;;;18.53;59.18;99307.19;5052548;28;19955;-75
2020/12/11 11:30:00;;;;;;;;;;;;;;;18.53;59.18;99307.19;5056856;28;19925;-77
2020/12/11 11:32:27;;;;;;;;;;;;;;;18.31;60.42;99251.63;5054796;28;19963;-78
2020/12/11 11:34:53;;;;;;;;;;;;;;;18.31;60.42;99251.63;5043484;28;20778;-79
2020/12/11 11:37:22;;;;;;;;;;;;;;;18.26;61.24;99252.97;5042826;28;20302;-77
2020/12/11 11:39:48;;;;;;;;;;;;;;;18.34;61.39;99245.19;5033856;28;22469;-80
2020/12/11 11:42:15;;;;;;;;;;;;;;;18.30;61.06;99247.25;5061535;28;20413;-76
2020/12/11 11:44:53;;;;;;;;;;;;;;;18.34;61.45;99253.25;5044735;28;19925;-77
2020/12/11 11:47:23;;;;;;;;;;;;;;;18.37;60.55;99250.28;5051076;28;20031;-76
2020/12/11 11:50:10;;;;;;;;;;;;;;;18.34;61.85;99251.41;5028551;28;19987;-77
2020/12/11 11:52:39;;;;;;;;;;;;;;;18.24;61.82;99249.56;5041581;28;20412;-78
2020/12/11 11:55:06;;;;;;;;;;;;;;;18.21;61.94;99245.28;5052077;28;19925;-78
2020/12/11 11:57:32;;;;;;;;;;;;;;;18.31;62.31;99243.59;5059585;28;19959;-77
2020/12/11 11:59:59;;;;;;;;;;;;;;;18.22;62.96;99244.31;5059713;28;19924;-77
2020/12/11 12:02:26;;;;;;;;;;;;;;;18.13;61.61;99235.16;5060878;28;19932;-77
2020/12/11 12:04:52;;;;;;;;;;;;;;;18.14;62.36;99236.00;5041883;28;19933;-78
2020/12/11 12:07:19;;;;;;;;;;;;;;;-144.28;100.00;59960.28;5042444;28;19925;-77
2020/12/11 12:09:46;;;;;;;;;;;;;;;-144.28;100.00;59960.28;5058965;28;19929;-80
2020/12/11 12:12:12;;;;;;;;;;;;;;;-144.28;100.00;59960.28;5056881;28;19963;-78
2020/12/11 12:14:39;;;;;;;;;;;;;;;-144.28;100.00;59960.28;5057185;28;20478;-77
2020/12/11 12:17:07;;;;;;;;;;;;;;;-144.28;100.00;59960.28;5063283;28;20277;-79
2020/12/11 12:19:36;;;;;;;;;;;;;;;-144.28;100.00;59960.28;5042202;28;19933;-80
2020/12/11 12:23:01;;;;;;;;;;;;;;;-144.28;100.00;59960.28;5056141;28;20331;-80
2020/12/11 12:30:43;;;;;;;;;;;;;;;-144.28;100.00;59960.28;5038714;28;19954;-75
2020/12/11 12:38:54;;;;;;;;;;;;;;;-144.28;100.00;59960.28;5048326;28;19939;-77
2020/12/11 12:44:05;;;;;;;;;;;;;;;-144.28;100.00;59960.28;5044167;28;20813;-78
2020/12/11 12:46:32;;;;;;;;;;;;;;;-144.28;100.00;59960.28;5037464;28;20389;-78
2020/12/11 12:48:58;;;;;;;;;;;;;;;-144.28;100.00;59960.28;5033481;28;20019;-79
2020/12/11 12:51:25;;;;;;;;;;;;;;;-144.28;100.00;59960.28;5045944;28;20360;-78
2020/12/11 12:53:51;;;;;;;;;;;;;;;-144.28;100.00;59960.28;5041179;28;19936;-79
2020/12/11 12:56:38;;;;;;;;;;;;;;;-144.28;100.00;59960.28;5050686;28;20037;-78
2020/12/11 12:59:11;;;;;;;;;;;;;;;-144.28;100.00;59960.28;5047826;28;19925;-78
2020/12/11 13:01:48;;;;;;;;;;;;;;;-144.28;100.00;59960.28;5061706;28;19935;-77
2020/12/11 13:04:22;;;;;;;;;;;;;;;-144.28;100.00;59960.28;5046023;28;20163;-78
2020/12/11 13:06:49;;;;;;;;;;;;;;;-144.28;100.00;59960.28;5049324;28;19928;-76
2020/12/11 13:09:16;;;;;;;;;;;;;;;-144.28;100.00;59960.28;5046341;28;20517;-75
2020/12/11 13:11:43;;;;;;;;;;;;;;;-144.28;100.00;59960.28;5053756;28;19962;-74